Time;durP1;ratioP1;P1;durP2;ratioP2;P2;SDS_P1;SDS_P2;PMS_P1;PMS_P2;Temp;Humidity;BMP_temperature;BMP_pressure;BME280_temperature;BME280_humidity;BME280_pressure;Samples;Min_cycle;Max_cycle;Signal;HPM_P1;HPM_P2
2022/08/15 00:01:25;;;;;;;2.72;1.35;;;;;;;33.03;27.16;100081.75;5042708;28;20055;-66
2022/08/15 00:03:53;;;;;;;1.50;1.40;;;;;;;33.00;26.45;100082.34;5041299;28;20024;-66
2022/08/15 00:06:23;;;;;;;3.15;1.55;;;;;;;32.94;26.56;100075.19;5026599;28;20029;-67
2022/08/15 00:08:51;;;;;;;2.67;1.30;;;;;;;32.92;27.45;100083.81;5026952;28;20552;-66
2022/08/15 00:11:20;;;;;;;2.80;1.10;;;;;;;32.87;27.20;100081.09;5032663;28;20029;-67
2022/08/15 00:13:51;;;;;;;3.05;1.20;;;;;;;32.86;27.87;100084.97;5032507;28;20033;-67
2022/08/15 00:16:18;;;;;;;3.60;1.42;;;;;;;32.83;27.36;100083.63;5032560;28;20094;-66
2022/08/15 00:18:44;;;;;;;3.10;1.20;;;;;;;32.80;27.02;100084.19;5033009;28;20076;-66
2022/08/15 00:21:11;;;;;;;1.50;1.40;;;;;;;32.78;27.35;100080.91;5016202;28;20017;-66
2022/08/15 00:23:40;;;;;;;2.78;0.98;;;;;;;32.76;27.72;100083.16;5032488;28;20052;-66
2022/08/15 00:26:06;;;;;;;5.90;1.48;;;;;;;32.73;28.11;100085.69;5032350;28;20056;-67
2022/08/15 00:28:31;;;;;;;4.07;1.45;;;;;;;32.71;27.87;100083.22;5032652;28;20452;-66
2022/08/15 00:30:57;;;;;;;6.45;1.38;;;;;;;32.69;28.25;100088.19;5032194;28;20439;-67
2022/08/15 00:33:22;;;;;;;2.45;1.40;;;;;;;32.65;27.76;100084.38;5032412;28;20120;-66
2022/08/15 00:35:50;;;;;;;6.35;2.90;;;;;;;32.61;28.13;100094.38;5032291;28;20031;-67
2022/08/15 00:38:20;;;;;;;3.00;1.52;;;;;;;32.58;27.48;100092.19;5032514;28;20498;-67
2022/08/15 00:43:36;;;;;;;2.55;1.50;;;;;;;32.53;27.97;100099.72;5032866;28;20403;-66
2022/08/15 00:46:05;;;;;;;3.38;1.50;;;;;;;32.48;28.00;100097.81;5032059;28;20100;-66
2022/08/15 00:48:42;;;;;;;2.20;1.52;;;;;;;32.48;28.32;100103.38;5031857;28;20025;-66
2022/08/15 00:51:12;;;;;;;2.60;1.58;;;;;;;32.44;28.38;100107.81;5019239;28;20034;-67
2022/08/15 00:53:39;;;;;;;1.80;1.15;;;;;;;32.41;28.31;100108.44;5019973;28;20029;-66
2022/08/15 00:56:05;;;;;;;3.30;1.23;;;;;;;32.37;28.54;100101.81;5037457;28;20026;-66
2022/08/15 00:58:31;;;;;;;1.77;1.30;;;;;;;32.38;27.93;100102.63;5036422;28;20025;-67
2022/08/15 01:00:57;;;;;;;2.50;1.40;;;;;;;32.36;28.86;100097.38;5036339;28;20441;-66
2022/08/15 01:03:29;;;;;;;1.85;1.08;;;;;;;32.35;28.83;100089.34;5036241;28;20104;-66
2022/08/15 01:05:56;;;;;;;;;;;;;;;32.35;28.96;100086.56;5036355;28;20053;-66
2022/08/15 01:08:24;;;;;;;1.50;0.95;;;;;;;32.31;28.73;100091.03;5035920;28;20256;-66
2022/08/15 01:10:50;;;;;;;3.97;1.42;;;;;;;32.28;28.58;100092.44;5035939;28;20033;-67
2022/08/15 01:13:15;;;;;;;5.75;1.30;;;;;;;32.25;28.84;100087.47;5019498;28;20030;-67
2022/08/15 01:15:41;;;;;;;2.83;1.25;;;;;;;32.21;28.81;100097.50;5019536;28;20086;-67
2022/08/15 01:18:06;;;;;;;4.15;1.50;;;;;;;32.19;28.74;100092.25;5019328;28;20094;-67
2022/08/15 01:20:33;;;;;;;1.48;1.10;;;;;;;32.16;28.98;100084.50;5035745;28;20022;-66
2022/08/15 01:23:05;;;;;;;3.28;1.30;;;;;;;32.16;29.23;100089.25;5019178;28;20029;-67
2022/08/15 01:25:38;;;;;;;3.55;1.30;;;;;;;32.14;29.21;100088.69;5035627;28;20501;-67
2022/08/15 01:28:08;;;;;;;2.97;1.30;;;;;;;32.13;28.90;100090.63;5035404;28;20054;-66
2022/08/15 01:30:41;;;;;;;2.03;0.98;;;;;;;32.08;29.11;100081.50;5035509;28;20057;-66
2022/08/15 01:33:07;;;;;;;4.35;1.10;;;;;;;32.11;29.18;100080.94;5019389;28;20036;-67
2022/08/15 01:35:33;;;;;;;3.45;1.10;;;;;;;32.09;29.50;100077.63;5019418;28;20449;-67
2022/08/15 01:37:59;;;;;;;2.22;1.30;;;;;;;32.11;29.44;100083.72;5019110;28;20029;-66
2022/08/15 01:40:47;;;;;;;1.23;1.13;;;;;;;32.09;29.61;100088.72;5035741;28;20022;-67
2022/08/15 01:43:16;;;;;;;2.08;1.15;;;;;;;32.08;29.80;100096.19;5035624;28;20021;-66
2022/08/15 01:45:43;;;;;;;4.57;1.58;;;;;;;32.03;29.96;100089.88;5035321;28;20025;-67
2022/08/15 01:48:18;;;;;;;4.82;1.50;;;;;;;32.04;29.77;100091.53;5035286;28;20105;-66
2022/08/15 01:50:49;;;;;;;4.15;1.15;;;;;;;32.00;29.60;100095.94;5035197;28;20056;-66
2022/08/15 01:53:21;;;;;;;1.45;1.25;;;;;;;31.97;29.75;100088.22;5018862;28;20025;-67
2022/08/15 01:55:59;;;;;;;3.13;1.05;;;;;;;31.97;30.15;100090.97;5051727;28;20048;-66
2022/08/15 01:58:25;;;;;;;3.28;1.48;;;;;;;31.94;29.75;100088.81;5035161;28;20156;-66
2022/08/15 02:01:03;;;;;;;5.78;1.38;;;;;;;31.92;30.35;100088.25;5002547;28;20423;-66
2022/08/15 02:03:35;;;;;;;3.85;1.30;;;;;;;31.89;30.52;100088.81;5033984;28;20025;-67
2022/08/15 02:06:05;;;;;;;;;;;;;;;31.86;30.05;100089.41;5035607;28;20022;-66
2022/08/15 02:08:30;;;;;;;1.88;1.27;;;;;;;31.84;29.89;100080.56;5035014;28;19916;-67
2022/08/15 02:10:56;;;;;;;5.32;1.38;;;;;;;31.84;29.94;100080.56;5034812;28;20037;-66
2022/08/15 02:13:23;;;;;;;2.33;1.30;;;;;;;31.82;29.91;100083.63;5034833;28;20507;-67
2022/08/15 02:15:48;;;;;;;1.35;1.25;;;;;;;31.80;30.45;100085.03;5034716;28;20036;-67
2022/08/15 02:18:14;;;;;;;5.30;1.55;;;;;;;31.78;30.29;100087.25;5034705;28;20034;-66
2022/08/15 02:20:39;;;;;;;4.95;1.00;;;;;;;31.73;30.32;100081.72;5051320;28;20442;-67
2022/08/15 02:23:05;;;;;;;5.40;1.10;;;;;;;31.74;30.62;100091.72;5018251;28;20053;-66
2022/08/15 02:25:31;;;;;;;1.42;1.17;;;;;;;31.72;30.39;100100.28;5035842;28;20025;-66
2022/08/15 02:27:56;;;;;;;4.45;1.17;;;;;;;31.71;30.41;100095.88;5035628;28;20107;-66
2022/08/15 02:30:24;;;;;;;1.33;1.10;;;;;;;31.70;30.33;100086.75;5035702;28;20403;-67
2022/08/15 02:32:50;;;;;;;4.38;1.38;;;;;;;31.66;30.77;100091.19;5035775;28;20030;-67
2022/08/15 02:35:16;;;;;;;1.33;0.90;;;;;;;31.63;30.81;100097.28;5050952;28;20040;-66
2022/08/15 02:37:43;;;;;;;1.55;1.00;;;;;;;31.62;30.76;100090.13;5034335;28;20030;-66
2022/08/15 02:40:12;;;;;;;3.10;1.65;;;;;;;31.61;30.93;100093.16;5034438;28;20033;-66
2022/08/15 02:42:38;;;;;;;2.58;1.05;;;;;;;31.56;30.59;100082.94;5034451;28;20052;-67
2022/08/15 02:45:09;;;;;;;3.50;1.27;;;;;;;31.52;30.69;100094.88;5017672;28;20398;-66
2022/08/15 02:47:35;;;;;;;3.25;1.30;;;;;;;31.50;30.95;100095.16;5034211;28;20052;-66
2022/08/15 02:50:01;;;;;;;2.63;1.45;;;;;;;31.50;30.97;100102.63;5034185;28;20103;-67
2022/08/15 02:52:27;;;;;;;3.03;1.60;;;;;;;31.46;30.97;100105.13;5017709;28;20167;-67
2022/08/15 02:54:52;;;;;;;1.38;1.23;;;;;;;31.45;31.21;100095.16;5017691;28;20037;-67
2022/08/15 02:57:18;;;;;;;1.20;1.10;;;;;;;31.44;30.80;100099.03;5017757;28;20434;-67
2022/08/15 02:59:44;;;;;;;2.97;1.30;;;;;;;31.43;31.10;100102.09;5034195;28;20518;-67
2022/08/15 03:02:10;;;;;;;2.47;1.50;;;;;;;31.39;31.68;100099.06;5034223;28;20164;-67
2022/08/15 03:04:38;;;;;;;1.08;0.85;;;;;;;31.35;31.35;100095.19;5017356;28;20049;-66
2022/08/15 03:07:03;;;;;;;3.85;1.30;;;;;;;31.32;30.73;100104.09;5033937;28;20049;-66
2022/08/15 03:09:29;;;;;;;1.23;1.10;;;;;;;31.29;31.25;100090.81;5017258;28;20080;-66
2022/08/15 03:11:57;;;;;;;3.08;1.05;;;;;;;31.27;31.30;100098.53;5033568;28;20033;-67
2022/08/15 03:14:24;;;;;;;2.38;1.33;;;;;;;31.23;31.65;100080.88;5033523;28;20033;-66
2022/08/15 03:16:50;;;;;;;1.60;1.27;;;;;;;31.26;31.34;100091.38;5033759;28;20475;-66
2022/08/15 03:19:23;;;;;;;1.63;1.27;;;;;;;31.27;31.76;100094.97;5033927;28;20033;-67
2022/08/15 03:21:49;;;;;;;6.60;1.70;;;;;;;31.25;31.76;100092.47;5017251;28;20022;-66
2022/08/15 03:24:15;;;;;;;3.95;1.27;;;;;;;31.24;31.45;100093.56;5033473;28;20525;-66
2022/08/15 03:26:45;;;;;;;3.03;1.08;;;;;;;31.23;31.47;100088.34;5033390;28;20068;-66
2022/08/15 03:29:12;;;;;;;2.22;1.20;;;;;;;31.23;31.68;100086.41;5033928;28;20476;-67
2022/08/15 03:31:37;;;;;;;2.72;1.58;;;;;;;31.22;31.53;100087.50;5033287;28;20051;-66
2022/08/15 03:34:03;;;;;;;5.57;1.25;;;;;;;31.20;31.80;100081.44;5016736;28;20061;-66
2022/08/15 03:36:28;;;;;;;3.67;1.38;;;;;;;31.21;31.67;100083.09;5033124;28;20029;-66
2022/08/15 03:38:53;;;;;;;2.42;1.10;;;;;;;31.19;31.73;100078.94;5033313;28;20026;-66
2022/08/15 03:41:20;;;;;;;5.63;1.55;;;;;;;31.19;31.86;100084.47;5016814;28;20026;-66
2022/08/15 03:43:46;;;;;;;2.00;1.20;;;;;;;31.16;31.63;100069.25;5033195;28;20032;-66
2022/08/15 03:46:16;;;;;;;4.10;1.38;;;;;;;31.18;31.94;100074.53;5017007;28;20372;-66
2022/08/15 03:48:45;;;;;;;5.22;1.40;;;;;;;31.17;31.86;100076.44;5033038;28;20031;-67
2022/08/15 03:51:11;;;;;;;3.50;1.48;;;;;;;31.17;32.00;100081.16;5016539;28;20116;-67
2022/08/15 03:53:44;;;;;;;1.10;0.98;;;;;;;31.17;31.85;100078.38;5033163;28;20108;-67
2022/08/15 03:56:17;;;;;;;2.17;1.35;;;;;;;31.17;32.05;100089.47;5034495;28;20464;-66
2022/08/15 03:58:42;;;;;;;1.35;1.25;;;;;;;31.14;31.70;100088.09;5033083;28;20029;-67
2022/08/15 04:01:17;;;;;;;1.60;1.30;;;;;;;31.13;32.00;100092.78;5016523;28;20029;-66
2022/08/15 04:03:44;;;;;;;3.35;1.42;;;;;;;31.10;31.95;100087.81;5033050;28;20022;-66
2022/08/15 04:06:11;;;;;;;1.98;1.35;;;;;;;31.09;32.13;100090.88;5033024;28;20033;-66
2022/08/15 04:08:37;;;;;;;1.65;1.15;;;;;;;31.08;32.15;100094.75;5016687;28;20472;-66
2022/08/15 04:11:05;;;;;;;2.35;1.70;;;;;;;31.07;32.07;100099.44;5032667;28;20483;-67
2022/08/15 04:13:32;;;;;;;3.70;1.55;;;;;;;31.04;32.54;100110.28;5032875;28;20104;-67
2022/08/15 04:15:59;;;;;;;3.92;1.55;;;;;;;31.00;32.69;100109.16;5015996;28;20390;-67
2022/08/15 04:18:25;;;;;;;3.67;1.40;;;;;;;30.97;32.39;100115.25;5032621;28;20033;-67
2022/08/15 04:20:53;;;;;;;5.63;1.38;;;;;;;30.93;32.40;100108.63;5015903;28;20542;-66
2022/08/15 04:23:18;;;;;;;3.58;1.30;;;;;;;30.91;32.95;100103.34;5032477;28;20022;-66
2022/08/15 04:25:44;;;;;;;3.28;1.58;;;;;;;30.89;32.12;100101.97;5033174;28;20394;-66
2022/08/15 04:28:13;;;;;;;4.72;1.58;;;;;;;30.89;32.79;100110.25;5032415;28;20459;-66
2022/08/15 04:30:40;;;;;;;1.60;1.17;;;;;;;30.87;32.70;100118.88;5032666;28;20445;-67
2022/08/15 04:33:06;;;;;;;5.13;1.50;;;;;;;30.87;32.76;100115.25;5032449;28;20026;-67
2022/08/15 04:35:31;;;;;;;2.20;1.20;;;;;;;30.85;33.17;100117.50;5048662;28;20025;-66
2022/08/15 04:37:58;;;;;;;3.90;1.17;;;;;;;30.85;32.76;100114.72;5032488;28;20083;-67
2022/08/15 04:40:23;;;;;;;2.10;1.35;;;;;;;30.84;32.97;100121.34;5032406;28;20021;-66
2022/08/15 04:42:55;;;;;;;1.77;1.35;;;;;;;30.83;32.84;100126.03;5015692;28;20025;-67
2022/08/15 04:45:22;;;;;;;2.80;1.92;;;;;;;30.81;32.79;100121.91;5032256;28;20040;-66
2022/08/15 04:47:48;;;;;;;1.30;1.20;;;;;;;30.81;33.14;100130.22;5015992;28;20128;-66
2022/08/15 04:50:14;;;;;;;6.30;1.50;;;;;;;30.79;32.61;100124.97;5032087;28;20483;-67
2022/08/15 04:52:48;;;;;;;1.92;1.33;;;;;;;30.74;33.26;100124.16;5015772;28;20367;-67
2022/08/15 04:55:14;;;;;;;3.28;1.55;;;;;;;30.72;33.75;100124.41;5015727;28;20057;-66
2022/08/15 04:57:40;;;;;;;1.38;1.00;;;;;;;30.72;33.11;100123.56;5015760;28;20072;-66
2022/08/15 05:00:09;;;;;;;2.70;1.42;;;;;;;30.70;33.29;100125.78;5015819;28;20040;-66
2022/08/15 05:02:35;;;;;;;3.15;1.30;;;;;;;30.69;33.47;100124.13;5032232;28;20402;-66
2022/08/15 05:05:00;;;;;;;1.77;1.52;;;;;;;30.70;33.85;100117.50;5032256;28;20062;-66
2022/08/15 05:07:26;;;;;;;4.28;1.15;;;;;;;30.66;33.80;100130.22;4999393;28;20033;-67
2022/08/15 05:09:52;;;;;;;3.50;1.15;;;;;;;30.58;34.44;100110.31;5015760;28;20021;-65
2022/08/15 05:12:17;;;;;;;1.75;1.10;;;;;;;30.51;34.48;100112.53;5033203;28;20021;-67
2022/08/15 05:14:42;;;;;;;1.23;1.10;;;;;;;30.50;34.39;100110.03;5033187;28;20518;-66
2022/08/15 05:17:08;;;;;;;4.63;1.45;;;;;;;30.44;34.56;100111.16;5048715;28;20446;-66
2022/08/15 05:19:33;;;;;;;1.65;1.27;;;;;;;30.41;34.84;100123.59;5015381;28;20033;-67
2022/08/15 05:21:58;;;;;;;3.03;1.52;;;;;;;30.39;35.36;100120.28;5033075;28;20064;-66
2022/08/15 05:24:24;;;;;;;1.88;1.35;;;;;;;30.40;35.17;100143.25;5032334;28;20034;-66
2022/08/15 05:26:50;;;;;;;3.33;1.20;;;;;;;30.37;34.56;100130.81;5015351;28;20061;-66
2022/08/15 05:29:15;;;;;;;5.82;1.60;;;;;;;30.37;34.99;100132.72;5033202;28;20129;-67
2022/08/15 05:31:41;;;;;;;1.60;1.20;;;;;;;30.38;35.31;100126.91;5015373;28;20033;-66
2022/08/15 05:34:06;;;;;;;2.80;1.15;;;;;;;30.39;35.28;100131.34;5031830;28;20018;-66
2022/08/15 05:36:34;;;;;;;1.67;1.00;;;;;;;30.39;34.91;100134.13;5032321;28;20080;-66
2022/08/15 05:39:12;;;;;;;3.25;1.65;;;;;;;30.43;35.03;100137.97;5035652;28;20068;-66
2022/08/15 05:42:02;;;;;;;4.50;1.30;;;;;;;30.48;34.96;100146.28;5018822;28;20535;-67
2022/08/15 05:44:36;;;;;;;2.47;1.42;;;;;;;30.48;35.64;100146.28;5036452;28;20087;-67
2022/08/15 05:47:09;;;;;;;5.57;1.60;;;;;;;30.50;34.93;100149.59;5051875;28;20029;-66
2022/08/15 05:49:45;;;;;;;1.15;1.05;;;;;;;30.54;34.70;100149.88;5035368;28;20388;-66
2022/08/15 05:52:31;;;;;;;3.72;1.52;;;;;;;30.57;35.07;100149.28;5036173;28;20092;-67
2022/08/15 05:55:16;;;;;;;5.95;1.27;;;;;;;30.58;35.31;100156.50;5035190;28;20044;-67
2022/08/15 05:58:10;;;;;;;5.15;1.75;;;;;;;30.66;34.97;100160.63;5035043;28;20022;-66
2022/08/15 06:00:37;;;;;;;2.42;1.40;;;;;;;30.72;35.21;100162.28;5035323;28;20566;-67
2022/08/15 06:03:15;;;;;;;6.35;1.52;;;;;;;30.78;35.34;100156.50;5034839;28;20033;-66
2022/08/15 06:05:44;;;;;;;2.10;1.40;;;;;;;30.82;35.34;100156.78;5034909;28;20434;-66
2022/08/15 06:08:13;;;;;;;5.18;1.50;;;;;;;30.82;35.34;100152.03;5034684;28;20029;-66
2022/08/15 06:10:44;;;;;;;3.13;1.90;;;;;;;30.88;35.42;100150.94;5034516;28;20075;-66
2022/08/15 06:13:14;;;;;;;2.15;1.25;;;;;;;30.95;34.89;100151.53;5034973;28;20025;-67
2022/08/15 06:15:39;;;;;;;4.88;1.33;;;;;;;31.02;35.04;100156.75;5035982;28;20017;-67
2022/08/15 06:18:09;;;;;;;2.70;1.70;;;;;;;31.05;34.97;100145.13;5051286;28;20035;-67
2022/08/15 06:20:52;;;;;;;1.67;1.58;;;;;;;31.09;34.90;100146.22;5034588;28;20398;-66
2022/08/15 06:24:04;;;;;;;2.60;1.45;;;;;;;31.13;35.14;100147.31;5035871;28;20390;-66
2022/08/15 06:26:50;;;;;;;2.53;2.05;;;;;;;31.21;34.94;100148.69;5035323;28;20129;-66
2022/08/15 06:29:55;;;;;;;2.63;1.30;;;;;;;31.26;35.69;100149.50;5023860;28;20033;-67
2022/08/15 06:32:41;;;;;;;5.35;1.60;;;;;;;31.31;35.13;100149.47;5050718;28;20037;-67
2022/08/15 06:35:21;;;;;;;2.72;1.73;;;;;;;31.31;35.23;100143.94;5034277;28;20217;-67
2022/08/15 06:38:05;;;;;;;1.73;1.20;;;;;;;31.35;35.07;100149.75;5035409;28;20423;-67
2022/08/15 06:40:57;;;;;;;8.52;1.88;;;;;;;31.37;35.46;100151.13;5035335;28;20026;-66
2022/08/15 06:43:22;;;;;;;2.60;1.57;;;;;;;31.38;34.90;100154.72;5034006;28;20390;-62
2022/08/15 06:45:50;;;;;;;6.57;1.83;;;;;;;31.40;35.38;100146.97;5033963;28;20032;-66
2022/08/15 06:48:21;;;;;;;7.22;1.63;;;;;;;31.41;34.92;100137.56;5033309;28;20032;-66
2022/08/15 06:50:49;;;;;;;3.78;1.52;;;;;;;31.39;35.13;100148.91;5033742;28;20025;-66
2022/08/15 06:53:20;;;;;;;1.73;1.60;;;;;;;31.33;35.61;100158.31;5033948;28;20022;-66
2022/08/15 06:56:00;;;;;;;4.15;2.00;;;;;;;31.31;35.48;100157.78;5033894;28;20398;-66
2022/08/15 06:58:55;;;;;;;2.55;1.52;;;;;;;31.28;35.41;100154.75;5017194;28;20022;-66
2022/08/15 07:01:46;;;;;;;2.67;1.42;;;;;;;31.22;35.72;100151.16;5033815;28;20029;-66
2022/08/15 07:04:30;;;;;;;5.03;1.60;;;;;;;31.13;35.61;100161.16;5050448;28;20037;-66
2022/08/15 07:07:12;;;;;;;4.07;1.92;;;;;;;31.08;36.04;100155.63;5033586;28;20395;-67
2022/08/15 07:09:47;;;;;;;4.97;1.33;;;;;;;31.01;36.13;100144.03;5017417;28;20391;-66
2022/08/15 07:12:19;;;;;;;7.15;1.80;;;;;;;30.97;35.95;100156.75;5033378;28;20095;-66
2022/08/15 07:15:04;;;;;;;5.35;1.73;;;;;;;30.90;35.69;100156.19;5033491;28;20438;-66
2022/08/15 07:17:46;;;;;;;2.47;1.42;;;;;;;30.88;35.89;100155.63;5034522;28;20029;-67
2022/08/15 07:20:11;;;;;;;5.20;1.67;;;;;;;30.87;36.04;100159.53;5033400;28;20036;-67
2022/08/15 07:22:39;;;;;;;3.28;2.25;;;;;;;30.86;36.43;100164.22;5034532;28;20029;-67
2022/08/15 07:25:13;;;;;;;3.58;1.98;;;;;;;30.86;36.64;100149.56;5017083;28;20472;-67
2022/08/15 07:27:38;;;;;;;4.90;1.73;;;;;;;30.86;36.61;100146.78;5033115;28;20069;-66
2022/08/15 07:30:07;;;;;;;3.13;1.77;;;;;;;30.84;36.45;100137.94;5016625;28;20484;-67
2022/08/15 07:32:48;;;;;;;5.72;1.83;;;;;;;30.81;37.23;100139.34;5032909;28;20108;-66
2022/08/15 07:35:14;;;;;;;7.93;2.63;;;;;;;30.79;36.40;100140.72;5033169;28;20029;-67
2022/08/15 07:38:02;;;;;;;3.72;1.65;;;;;;;30.74;36.84;100140.75;5049540;28;20021;-66
2022/08/15 07:40:31;;;;;;;4.47;1.60;;;;;;;30.70;37.14;100151.53;5016420;28;20025;-67
2022/08/15 07:42:58;;;;;;;4.85;1.92;;;;;;;30.64;37.15;100151.78;5033062;28;20454;-67
2022/08/15 07:45:36;;;;;;;5.10;1.80;;;;;;;30.62;36.79;100151.25;5016628;28;20383;-66
2022/08/15 07:48:11;;;;;;;2.30;1.75;;;;;;;30.58;37.36;100150.97;5016548;28;20112;-67
2022/08/15 07:50:44;;;;;;;4.15;2.03;;;;;;;30.60;37.29;100150.72;5032537;28;20041;-66
2022/08/15 07:53:12;;;;;;;2.45;1.95;;;;;;;30.57;37.20;100155.66;5032786;28;20425;-66
2022/08/15 07:55:39;;;;;;;3.40;1.95;;;;;;;30.55;37.03;100155.13;5032694;28;20041;-66
2022/08/15 07:58:19;;;;;;;9.65;1.85;;;;;;;30.54;37.38;100156.22;5032671;28;20026;-67
2022/08/15 08:00:52;;;;;;;4.13;1.83;;;;;;;30.51;37.50;100156.75;5031854;28;20499;-67
2022/08/15 08:03:29;;;;;;;4.72;1.88;;;;;;;30.55;37.71;100146.81;5016204;28;20390;-68
2022/08/15 08:06:15;;;;;;;5.30;1.55;;;;;;;30.55;37.86;100151.50;5016128;28;20051;-67
2022/08/15 08:08:46;;;;;;;4.72;1.85;;;;;;;30.61;37.63;100158.72;5032625;28;20021;-67
2022/08/15 08:11:19;;;;;;;4.70;1.90;;;;;;;30.67;37.76;100154.84;5032357;28;20032;-67
2022/08/15 08:13:54;;;;;;;3.38;2.15;;;;;;;30.83;37.87;100164.78;5032503;28;20025;-67
2022/08/15 08:16:38;;;;;;;7.55;2.30;;;;;;;30.98;37.30;100161.19;5033582;28;20025;-66
2022/08/15 08:19:24;;;;;;;5.90;2.05;;;;;;;31.12;37.40;100162.28;5016111;28;20036;-67
2022/08/15 08:21:53;;;;;;;2.75;1.75;;;;;;;31.20;37.20;100158.94;5048814;28;20037;-66
2022/08/15 08:25:01;;;;;;;2.70;1.95;;;;;;;31.27;37.27;100158.66;5048757;28;20021;-66
2022/08/15 08:27:33;;;;;;;5.00;1.98;;;;;;;31.30;37.15;100164.44;5032141;28;20148;-66
2022/08/15 08:30:09;;;;;;;5.25;1.80;;;;;;;31.27;37.71;100159.44;5033388;28;20029;-66
2022/08/15 08:32:53;;;;;;;2.47;1.70;;;;;;;31.24;37.19;100170.28;5031992;28;20037;-65
2022/08/15 08:35:31;;;;;;;3.85;1.60;;;;;;;31.17;37.43;100164.19;5033284;28;20025;-65
2022/08/15 08:38:03;;;;;;;3.92;1.95;;;;;;;31.12;37.19;100173.34;5032124;28;20030;-66
2022/08/15 08:43:46;;;;;;;2.13;1.65;;;;;;;31.07;37.67;100176.94;5033197;28;20045;-66
2022/08/15 08:46:24;;;;;;;4.18;1.75;;;;;;;31.07;37.48;100179.72;5033319;28;20387;-66
2022/08/15 08:48:49;;;;;;;3.45;2.50;;;;;;;31.07;37.72;100176.94;5048463;28;20495;-66
2022/08/15 08:51:34;;;;;;;8.43;2.03;;;;;;;31.06;37.59;100180.00;5033131;28;20025;-66
2022/08/15 08:54:26;;;;;;;5.18;1.95;;;;;;;31.05;37.39;100181.09;5031945;28;20025;-66
2022/08/15 08:56:53;;;;;;;8.10;2.03;;;;;;;31.01;37.92;100183.63;5015861;28;20064;-66
2022/08/15 08:59:25;;;;;;;4.65;1.75;;;;;;;30.98;37.55;100188.88;5031924;28;20049;-66
2022/08/15 09:02:14;;;;;;;5.70;2.00;;;;;;;30.98;37.47;100188.88;5031782;28;20486;-66
2022/08/15 09:04:48;;;;;;;3.33;1.90;;;;;;;31.00;37.44;100193.00;5035802;28;20109;-66
2022/08/15 09:07:20;;;;;;;3.33;1.63;;;;;;;31.01;37.43;100196.63;5031963;28;20476;-66
2022/08/15 09:09:46;;;;;;;4.50;2.00;;;;;;;31.01;37.43;100196.63;5031788;28;20018;-66
2022/08/15 09:15:03;;;;;;;5.47;2.20;;;;;;;30.95;37.47;100193.03;5035900;28;20029;-66
2022/08/15 09:17:31;;;;;;;2.38;2.00;;;;;;;30.94;37.25;100187.75;5035518;28;20455;-66
2022/08/15 09:20:05;;;;;;;4.60;2.15;;;;;;;30.92;37.92;100184.41;5035658;28;20116;-66
2022/08/15 09:22:30;;;;;;;5.38;2.40;;;;;;;30.94;37.65;100187.75;5035816;28;20032;-66
2022/08/15 09:24:56;;;;;;;4.78;2.10;;;;;;;30.96;37.66;100197.44;5018953;28;20395;-65
2022/08/15 09:27:24;;;;;;;3.80;2.63;;;;;;;30.98;37.73;100199.94;5036640;28;20060;-66
2022/08/15 09:29:54;;;;;;;4.38;1.92;;;;;;;31.01;37.67;100200.22;5051934;28;20025;-66
2022/08/15 09:32:29;;;;;;;4.47;1.83;;;;;;;31.06;37.89;100204.91;5035268;28;20037;-66
2022/08/15 09:35:32;;;;;;;3.15;1.73;;;;;;;31.13;37.77;100206.28;5051867;28;20029;-66
2022/08/15 09:38:12;;;;;;;;;;;;;;;31.20;37.32;100208.75;5052245;28;20083;-66
2022/08/15 09:41:14;;;;;;;3.70;2.15;;;;;;;31.28;37.36;100205.41;5051696;28;20353;-66
2022/08/15 09:44:10;;;;;;;2.63;1.98;;;;;;;31.38;37.92;100207.34;5034965;28;20427;-66
2022/08/15 09:47:01;;;;;;;2.40;2.00;;;;;;;31.45;37.14;100205.09;5035096;28;20087;-66
2022/08/15 09:49:52;;;;;;;2.38;1.77;;;;;;;31.44;37.37;100203.41;5051319;28;20471;-66
2022/08/15 09:52:20;;;;;;;4.28;2.17;;;;;;;31.46;37.67;100196.53;5036196;28;20438;-67
2022/08/15 09:54:54;;;;;;;5.20;2.30;;;;;;;31.51;37.47;100202.06;5036203;28;20554;-66
2022/08/15 09:57:28;;;;;;;4.32;2.63;;;;;;;31.52;37.46;100198.16;5034942;28;20056;-65
2022/08/15 09:59:59;;;;;;;4.35;2.42;;;;;;;31.58;37.60;100204.50;5036015;28;20075;-66
2022/08/15 10:02:28;;;;;;;4.47;2.20;;;;;;;31.61;37.61;100204.78;5035026;28;20018;-65
2022/08/15 10:04:55;;;;;;;6.55;2.45;;;;;;;31.66;37.04;100196.44;5034991;28;20439;-65
2022/08/15 10:07:45;;;;;;;3.45;1.98;;;;;;;31.74;37.26;100197.81;5036102;28;20028;-65
2022/08/15 10:10:41;;;;;;;3.85;2.13;;;;;;;31.81;37.39;100194.72;5035947;28;20111;-65
2022/08/15 10:13:07;;;;;;;4.03;2.33;;;;;;;31.85;36.74;100193.06;5050620;28;20032;-65
2022/08/15 10:15:46;;;;;;;3.90;2.17;;;;;;;31.91;37.03;100191.94;5035900;28;20029;-65
2022/08/15 10:18:27;;;;;;;3.65;2.08;;;;;;;31.98;37.19;100192.44;5034841;28;20108;-65
2022/08/15 10:20:55;;;;;;;2.42;1.83;;;;;;;32.02;36.73;100191.59;5035947;28;20431;-65
2022/08/15 10:23:29;;;;;;;5.63;1.67;;;;;;;32.11;37.24;100186.28;5050105;28;20025;-65
2022/08/15 10:26:27;;;;;;;2.67;1.98;;;;;;;32.21;36.89;100189.00;5034483;28;20026;-65
2022/08/15 10:28:59;;;;;;;3.63;2.30;;;;;;;32.26;36.23;100192.56;5018012;28;20407;-66
2022/08/15 10:31:29;;;;;;;4.35;2.45;;;;;;;32.27;36.50;100193.41;5035868;28;20134;-66
2022/08/15 10:33:58;;;;;;;3.20;2.10;;;;;;;32.25;36.34;100198.38;5050901;28;20025;-65
2022/08/15 10:36:35;;;;;;;4.18;2.00;;;;;;;32.26;36.76;100197.28;5034399;28;20022;-66
2022/08/15 10:39:20;;;;;;;5.75;2.42;;;;;;;32.28;36.59;100198.66;5034225;28;20021;-66
2022/08/15 10:41:59;;;;;;;4.38;1.90;;;;;;;32.27;36.74;100193.41;5035549;28;20034;-67
2022/08/15 10:44:44;;;;;;;3.22;2.08;;;;;;;32.31;36.23;100200.00;5017811;28;20097;-66
2022/08/15 10:47:37;;;;;;;2.67;1.95;;;;;;;32.29;36.63;100207.81;5028253;28;20486;-65
2022/08/15 10:50:42;;;;;;;5.80;1.95;;;;;;;32.26;36.45;100202.81;5034084;28;20029;-66
2022/08/15 10:53:14;;;;;;;4.95;1.65;;;;;;;32.14;36.70;100211.50;5048067;28;20025;-65
2022/08/15 10:55:40;;;;;;;3.58;2.20;;;;;;;32.11;36.94;100214.00;5055109;28;20021;-66
2022/08/15 10:58:20;;;;;;;4.93;2.28;;;;;;;32.10;36.61;100215.13;5053824;28;20028;-66
2022/08/15 11:00:48;;;;;;;6.93;2.20;;;;;;;32.10;36.59;100212.34;5037233;28;20025;-66
2022/08/15 11:03:18;;;;;;;4.20;2.35;;;;;;;32.08;36.49;100214.56;5053703;28;20025;-66
2022/08/15 11:05:56;;;;;;;4.65;1.83;;;;;;;32.07;36.06;100211.00;5042243;28;20021;-66
2022/08/15 11:08:23;;;;;;;3.17;2.03;;;;;;;32.12;36.16;100210.13;5033833;28;20053;-65
2022/08/15 11:10:48;;;;;;;7.32;2.17;;;;;;;32.14;36.56;100205.09;5033445;28;20570;-66
2022/08/15 11:13:16;;;;;;;3.72;2.03;;;;;;;32.20;36.21;100203.97;5033637;28;20061;-66
2022/08/15 11:15:56;;;;;;;4.18;2.17;;;;;;;32.23;36.93;100208.94;5033540;28;20029;-66
2022/08/15 11:18:34;;;;;;;4.32;2.00;;;;;;;32.24;36.32;100207.84;5033501;28;20075;-66
2022/08/15 11:21:18;;;;;;;4.85;2.40;;;;;;;32.32;36.47;100214.72;5033438;28;20033;-66
2022/08/15 11:23:54;;;;;;;7.28;2.15;;;;;;;32.34;36.68;100216.06;5034601;28;20390;-66
2022/08/15 11:26:29;;;;;;;2.30;1.83;;;;;;;32.37;36.19;100218.28;5016657;28;20518;-66
2022/08/15 11:29:10;;;;;;;4.10;2.25;;;;;;;32.36;36.56;100221.34;5039004;28;20075;-66
2022/08/15 11:32:02;;;;;;;2.93;2.10;;;;;;;32.37;36.71;100226.59;5033342;28;20033;-66
2022/08/15 11:34:30;;;;;;;3.70;2.35;;;;;;;32.38;36.04;100230.22;5031830;28;20033;-66
2022/08/15 11:37:03;;;;;;;4.18;2.63;;;;;;;32.37;36.25;100232.16;5033113;28;20052;-66
2022/08/15 11:39:30;;;;;;;6.68;2.80;;;;;;;32.41;35.94;100230.47;5016606;28;20079;-65
2022/08/15 11:42:02;;;;;;;2.75;1.90;;;;;;;32.47;35.91;100229.28;5016512;28;20022;-66
2022/08/15 11:44:39;;;;;;;6.50;2.30;;;;;;;32.59;35.55;100223.41;5032977;28;20041;-66
2022/08/15 11:47:05;;;;;;;4.32;2.20;;;;;;;32.79;35.87;100226.03;5032999;28;20075;-66
2022/08/15 11:49:33;;;;;;;2.17;1.67;;;;;;;33.00;35.47;100226.69;5016320;28;20479;-66
2022/08/15 11:52:04;;;;;;;6.28;2.15;;;;;;;33.11;35.50;100225.53;5032864;28;20112;-66
2022/08/15 11:54:29;;;;;;;16.35;2.58;;;;;;;33.17;35.91;100216.81;5032858;28;20025;-66
2022/08/15 11:56:56;;;;;;;4.03;2.88;;;;;;;33.30;35.64;100223.66;5032882;28;20025;-66
2022/08/15 11:59:56;;;;;;;4.18;2.60;;;;;;;33.42;34.69;100224.88;5032686;28;20104;-66